MAPA DE AEROPUERTO

INFORMACIÓN METAR y TAF

METAR FOR GCTS
ADDS - METARS form results

(1449 UTC 05 December 2020)
Data provider http://aviationweather.gov/metar/data/
 
METAR text: GCTS 051430Z 09015KT 9999 VCSH FEW033TCU BKN042 20/15 Q1018 NOSIG
Conditions at: GCTS (TENERIFE SUR/REI, ES) observed 1430 UTC 05 December 2020
Temperature: 20.0°C (68°F)
Dewpoint: 15.0°C (59°F) [RH = 73%]
Pressure (altimeter): 30.06 inches Hg (1018.0 mb)
Winds: from the E (90 degrees) at 17 MPH (15 knots; 7.7 m/s)
Visibility: 6 or more miles (10+ km)
Ceiling: 4200 feet AGL
Clouds: few clouds at 3300 feet AGL
broken clouds at 4200 feet AGL
Weather: VCSH  (showers in vicinity)

METAR text: GCTS 051400Z 10009KT 070V140 9999 FEW033 BKN041 22/13 Q1018 NOSIG
Conditions at: GCTS (TENERIFE SUR/REI, ES) observed 1400 UTC 05 December 2020
Temperature: 22.0°C (72°F)
Dewpoint: 13.0°C (55°F) [RH = 57%]
Pressure (altimeter): 30.06 inches Hg (1018.0 mb)
Winds: from the E (100 degrees) at 10 MPH (9 knots; 4.6 m/s)
Visibility: 6 or more miles (10+ km)
Ceiling: 4100 feet AGL
Clouds: few clouds at 3300 feet AGL
broken clouds at 4100 feet AGL
Weather: no significant weather observed at this time

Forecast for: GCTS (TENERIFE SUR/REI, ES)
Text: TAF GCTS 051400Z 0515/0615 07015KT 9999 SCT040 TX22/0515Z TN16/0607Z
Forecast period: 1500 UTC 05 December 2020 to 1500 UTC 06 December 2020
Forecast type: FROM: standard forecast or significant change
Winds: from the ENE (70 degrees) at 17 MPH (15 knots; 7.7 m/s)
Visibility: 6 or more miles (10+ km)
Ceiling: at least 12,000 feet AGL
Clouds: scattered clouds at 4000 feet AGL
Weather: no significant weather forecast for this period
Text: PROB30
Forecast period: 2300 UTC 05 December 2020 to 0900 UTC 06 December 2020
Forecast type: TEMPORARY: The following changes expected for less than half the time period
Winds: variable direction winds at 6 MPH (5 knots; 2.6 m/s)
Visibility: missing
Ceiling: unknown
Clouds: missing
Weather: no significant weather forecast for this period